Terminal Aerodrome Forecast
Issued by NWS Milwaukee/Sullivan, WI

Home | Current Version | Previous Version | Text Only | Print | Product List | Glossary On
Versions: 1 2 3 4 5 6 7 8 9 10 11 12 13 14 15 16 17 18 19 20 21 22
000
FTUS43 KMKX 232320
TAFMSN
TAF
KMSN 232320Z 2400/2424 22004KT P6SM SKC
     FM240500 19007KT P6SM FEW250
     FM240800 20008KT P6SM SCT200 WS020/23035KT
     FM241300 20011G21KT P6SM FEW120 SCT250 WS020/24045KT
     FM241700 21015G25KT P6SM FEW140 SCT250
     FM242300 26011KT P6SM SCT100 BKN120=

USA.gov is the U.S. government's official web portal to all federal, state and local government web resources and services.